createdAt,value
2022-09-15T00:00:20.503Z,0.00
2022-09-15T00:01:20.562Z,0.00
2022-09-15T00:02:20.627Z,0.00
2022-09-15T00:03:20.521Z,0.00
2022-09-15T00:04:20.443Z,0.00
2022-09-15T00:05:20.433Z,0.00
2022-09-15T00:06:20.440Z,0.00
2022-09-15T00:07:20.421Z,0.00
2022-09-15T00:08:20.396Z,0.00
2022-09-15T00:09:20.388Z,0.00
2022-09-15T00:10:20.365Z,0.00
2022-09-15T00:11:20.375Z,0.00
2022-09-15T00:12:20.343Z,0.00
2022-09-15T00:13:20.335Z,0.00
2022-09-15T00:14:20.314Z,0.00
2022-09-15T00:15:20.316Z,0.00
2022-09-15T00:16:20.349Z,0.00
2022-09-15T00:17:20.282Z,0.00
2022-09-15T00:18:20.265Z,0.00
2022-09-15T00:19:20.256Z,0.00
2022-09-15T00:20:20.235Z,0.00
2022-09-15T00:21:20.238Z,0.00
2022-09-15T00:22:20.214Z,0.00
2022-09-15T00:23:20.208Z,0.00
2022-09-15T00:24:20.185Z,0.00
2022-09-15T00:25:20.174Z,0.00
2022-09-15T00:26:20.170Z,0.00
2022-09-15T00:27:20.154Z,0.00
2022-09-15T00:28:20.132Z,0.00
2022-09-15T00:29:20.123Z,0.00
2022-09-15T00:30:20.106Z,0.00
2022-09-15T00:31:20.225Z,0.00
2022-09-15T00:32:20.074Z,0.00
2022-09-15T00:33:20.083Z,0.00
2022-09-15T00:34:20.052Z,0.00
2022-09-15T00:35:20.034Z,0.00
2022-09-15T00:36:20.034Z,0.00
2022-09-15T00:37:20.014Z,0.00
2022-09-15T00:38:20.004Z,0.00
2022-09-15T00:39:19.983Z,0.00
2022-09-15T00:40:20.043Z,0.00
2022-09-15T00:41:19.963Z,0.00
2022-09-15T00:42:19.947Z,0.00
2022-09-15T00:43:19.923Z,0.00
2022-09-15T00:44:19.935Z,0.00
2022-09-15T00:45:19.903Z,0.00
2022-09-15T00:46:19.981Z,0.00
2022-09-15T00:47:20.136Z,0.00
2022-09-15T00:48:19.862Z,0.00
2022-09-15T00:49:19.854Z,0.00
2022-09-15T00:50:19.856Z,0.00
2022-09-15T00:51:19.824Z,0.00
2022-09-15T00:52:19.830Z,0.00
2022-09-15T00:53:19.794Z,0.00
2022-09-15T00:54:19.813Z,0.00
2022-09-15T00:55:19.976Z,0.00
2022-09-15T00:56:19.762Z,0.00
2022-09-15T00:57:19.761Z,0.00
2022-09-15T00:58:19.748Z,0.00
2022-09-15T00:59:19.713Z,0.00
2022-09-15T01:00:19.733Z,0.00
2022-09-15T01:01:19.729Z,0.00
2022-09-15T01:02:19.719Z,0.00
2022-09-15T01:03:19.657Z,0.00
2022-09-15T01:04:19.643Z,0.00
2022-09-15T01:05:19.645Z,0.00
2022-09-15T01:06:19.630Z,0.00
2022-09-15T01:07:19.604Z,0.00
2022-09-15T01:08:19.591Z,0.00
2022-09-15T01:09:19.593Z,0.00
2022-09-15T01:10:19.585Z,0.00
2022-09-15T01:11:19.542Z,0.00
2022-09-15T01:12:19.557Z,0.00
2022-09-15T01:13:19.522Z,0.00
2022-09-15T01:14:19.516Z,0.00
2022-09-15T01:15:19.513Z,0.00
2022-09-15T01:16:19.507Z,0.00
2022-09-15T01:17:19.477Z,0.00
2022-09-15T01:18:19.467Z,0.00
2022-09-15T01:19:19.442Z,0.00
2022-09-15T01:20:19.451Z,0.00
2022-09-15T01:21:19.413Z,0.00
2022-09-15T01:22:19.409Z,0.00
2022-09-15T01:23:19.404Z,0.00
2022-09-15T01:24:19.384Z,0.00
2022-09-15T01:25:19.371Z,0.00
2022-09-15T01:26:19.374Z,0.00
2022-09-15T01:27:41.105Z,0.00
2022-09-15T01:28:20.330Z,0.00
2022-09-15T01:29:21.676Z,0.00
2022-09-15T01:30:19.304Z,0.00
2022-09-15T01:31:19.364Z,0.00
2022-09-15T01:32:19.273Z,0.00
2022-09-15T01:33:19.261Z,0.00
2022-09-15T01:34:19.253Z,0.00
2022-09-15T01:35:19.227Z,0.00
2022-09-15T01:36:19.215Z,0.00
2022-09-15T01:37:19.203Z,0.00
2022-09-15T01:38:19.206Z,0.00
2022-09-15T01:39:19.184Z,0.00
2022-09-15T01:40:19.234Z,0.00
2022-09-15T01:41:19.147Z,0.00
2022-09-15T01:42:19.132Z,0.00
2022-09-15T01:43:19.121Z,0.00
2022-09-15T01:44:19.125Z,0.00
2022-09-15T01:45:19.109Z,0.00
2022-09-15T01:46:19.149Z,0.00
2022-09-15T01:47:19.070Z,0.00
2022-09-15T01:48:19.058Z,0.00
2022-09-15T01:49:19.053Z,0.00
2022-09-15T01:50:19.032Z,0.00
2022-09-15T01:51:19.012Z,0.00
2022-09-15T01:52:19.001Z,0.00
2022-09-15T01:53:18.996Z,0.00
2022-09-15T01:54:18.981Z,0.00
2022-09-15T01:55:18.962Z,0.00
2022-09-15T01:56:18.943Z,0.00
2022-09-15T01:57:18.932Z,0.00
2022-09-15T01:58:18.921Z,0.00
2022-09-15T01:59:18.922Z,0.00
2022-09-15T02:00:18.893Z,0.00
2022-09-15T02:01:18.930Z,0.00
2022-09-15T02:02:18.933Z,0.00
2022-09-15T02:03:18.849Z,0.00
2022-09-15T02:04:18.861Z,0.00
2022-09-15T02:05:18.822Z,0.00
2022-09-15T02:06:18.822Z,0.00
2022-09-15T02:07:18.804Z,0.00
2022-09-15T02:08:18.795Z,0.00
2022-09-15T02:09:18.780Z,0.00
2022-09-15T02:10:18.779Z,0.00
2022-09-15T02:11:18.742Z,0.00
2022-09-15T02:12:18.730Z,0.00
2022-09-15T02:13:18.710Z,0.00
2022-09-15T02:14:18.719Z,0.00
2022-09-15T02:15:18.692Z,0.00
2022-09-15T02:16:18.715Z,0.00
2022-09-15T02:17:18.665Z,0.00
2022-09-15T02:18:18.658Z,0.00
2022-09-15T02:19:18.652Z,0.00
2022-09-15T02:20:18.621Z,0.00
2022-09-15T02:21:18.665Z,0.00
2022-09-15T02:22:18.590Z,0.00
2022-09-15T02:23:18.586Z,0.00
2022-09-15T02:24:18.580Z,0.00
2022-09-15T02:25:18.558Z,0.00
2022-09-15T02:26:18.550Z,0.00
2022-09-15T02:27:18.523Z,0.00
2022-09-15T02:28:18.522Z,0.00
2022-09-15T02:29:18.519Z,0.00
2022-09-15T02:30:18.490Z,0.00
2022-09-15T02:31:18.519Z,0.00
2022-09-15T02:32:18.470Z,0.00
2022-09-15T02:33:18.452Z,0.00
2022-09-15T02:34:18.444Z,0.00
2022-09-15T02:35:18.410Z,0.00
2022-09-15T02:36:18.410Z,0.00
2022-09-15T02:37:18.390Z,0.00
2022-09-15T02:38:18.379Z,0.00
2022-09-15T02:39:18.383Z,0.00
2022-09-15T02:40:18.451Z,0.00
2022-09-15T02:41:18.330Z,0.00
2022-09-15T02:42:18.344Z,0.00
2022-09-15T02:43:18.317Z,0.00
2022-09-15T02:44:18.323Z,0.00
2022-09-15T02:45:18.398Z,0.00
2022-09-15T02:46:18.270Z,0.00
2022-09-15T02:47:18.265Z,0.00
2022-09-15T02:48:18.244Z,0.00
2022-09-15T02:49:18.248Z,0.00
2022-09-15T02:50:18.220Z,0.00
2022-09-15T02:51:18.198Z,0.00
2022-09-15T02:52:18.201Z,0.00
2022-09-15T02:53:18.180Z,0.00
2022-09-15T02:54:18.181Z,0.00
2022-09-15T02:55:18.153Z,0.00
2022-09-15T02:56:18.144Z,0.00
2022-09-15T02:57:18.124Z,0.00
2022-09-15T02:58:18.108Z,0.00
2022-09-15T02:59:18.110Z,0.00
2022-09-15T03:00:18.088Z,0.00
2022-09-15T03:01:18.249Z,0.00
2022-09-15T03:02:18.096Z,0.00
2022-09-15T03:03:18.038Z,0.00
2022-09-15T03:04:18.049Z,0.00
2022-09-15T03:05:18.018Z,0.00
2022-09-15T03:06:18.010Z,0.00
2022-09-15T03:07:17.979Z,0.00
2022-09-15T03:08:17.991Z,0.00
2022-09-15T03:09:17.979Z,0.00
2022-09-15T03:10:17.956Z,0.00
2022-09-15T03:11:17.938Z,0.00
2022-09-15T03:12:17.930Z,0.00
2022-09-15T03:13:17.921Z,0.00
2022-09-15T03:14:17.899Z,0.00
2022-09-15T03:15:17.882Z,0.00
2022-09-15T03:16:17.908Z,0.00
2022-09-15T03:17:17.849Z,0.00
2022-09-15T03:18:17.859Z,0.00
2022-09-15T03:19:17.819Z,0.00
2022-09-15T03:20:17.829Z,0.00
2022-09-15T03:21:17.799Z,0.00
2022-09-15T03:22:17.789Z,0.00
2022-09-15T03:23:17.789Z,0.00
2022-09-15T03:24:17.767Z,0.00
2022-09-15T03:25:17.755Z,0.00
2022-09-15T03:26:17.738Z,0.00
2022-09-15T03:27:17.718Z,0.00
2022-09-15T03:28:17.721Z,0.00
2022-09-15T03:29:17.699Z,0.00
2022-09-15T03:30:17.679Z,0.00
2022-09-15T03:31:17.716Z,0.00
2022-09-15T03:32:17.649Z,0.00
2022-09-15T03:33:17.647Z,0.00
2022-09-15T03:34:17.620Z,0.00
2022-09-15T03:35:17.608Z,0.00
2022-09-15T03:36:17.602Z,0.00
2022-09-15T03:37:17.600Z,0.00
2022-09-15T03:38:17.599Z,0.00
2022-09-15T03:39:17.573Z,0.00
2022-09-15T03:40:17.605Z,0.00
2022-09-15T03:41:17.559Z,0.00
2022-09-15T03:42:17.529Z,0.00
2022-09-15T03:43:18.796Z,0.00
2022-09-15T03:44:17.491Z,0.00
2022-09-15T03:45:17.477Z,0.00
2022-09-15T03:46:17.497Z,0.00
2022-09-15T03:47:17.455Z,0.00
2022-09-15T03:48:17.449Z,0.00
2022-09-15T03:49:17.417Z,0.00
2022-09-15T03:50:17.421Z,0.00
2022-09-15T03:51:17.399Z,0.00
2022-09-15T03:52:17.388Z,0.00
2022-09-15T03:53:17.386Z,0.00
2022-09-15T03:54:17.363Z,0.00
2022-09-15T03:55:17.361Z,0.00
2022-09-15T03:56:17.330Z,0.00
2022-09-15T03:57:17.308Z,0.00
2022-09-15T03:58:17.320Z,0.00
2022-09-15T03:59:17.289Z,0.00
2022-09-15T04:00:17.295Z,0.00
2022-09-15T04:01:17.309Z,0.00
2022-09-15T04:02:17.299Z,0.00
2022-09-15T04:03:17.246Z,0.00
2022-09-15T04:04:17.218Z,0.00
2022-09-15T04:05:17.209Z,0.00
2022-09-15T04:06:17.199Z,0.00
2022-09-15T04:07:17.179Z,0.00
2022-09-15T04:08:17.191Z,0.00
2022-09-15T04:09:17.159Z,0.00
2022-09-15T04:10:17.146Z,0.00
2022-09-15T04:11:17.128Z,0.00
2022-09-15T04:12:17.121Z,0.00
2022-09-15T04:13:17.119Z,0.00
2022-09-15T04:14:17.089Z,0.00
2022-09-15T04:15:17.079Z,0.00
2022-09-15T04:16:17.187Z,0.00
2022-09-15T04:17:17.050Z,0.00
2022-09-15T04:18:17.052Z,0.00
2022-09-15T04:19:17.022Z,0.00
2022-09-15T04:20:17.008Z,4.00
2022-09-15T04:21:16.996Z,4.00
2022-09-15T04:22:18.012Z,0.00
2022-09-15T04:23:16.974Z,0.00
2022-09-15T04:24:16.957Z,4.00
2022-09-15T04:25:16.938Z,4.00
2022-09-15T04:26:16.929Z,4.00
2022-09-15T04:27:16.912Z,4.00
2022-09-15T04:28:16.907Z,4.00
2022-09-15T04:29:16.880Z,4.00
2022-09-15T04:30:16.868Z,8.00
2022-09-15T04:31:16.905Z,8.00
2022-09-15T04:32:16.852Z,8.00
2022-09-15T04:33:16.838Z,8.00
2022-09-15T04:34:16.840Z,8.00
2022-09-15T04:35:16.801Z,8.00
2022-09-15T04:36:16.862Z,12.00
2022-09-15T04:37:16.779Z,12.00
2022-09-15T04:38:16.776Z,12.00
2022-09-15T04:39:16.755Z,12.00
2022-09-15T04:40:16.903Z,16.00
2022-09-15T04:41:16.722Z,16.00
2022-09-15T04:42:16.706Z,16.00
2022-09-15T04:43:16.710Z,16.00
2022-09-15T04:44:16.687Z,20.00
2022-09-15T04:45:16.666Z,20.00
2022-09-15T04:46:16.704Z,28.00
2022-09-15T04:47:16.649Z,24.00
2022-09-15T04:48:16.657Z,28.00
2022-09-15T04:49:16.618Z,28.00
2022-09-15T04:50:16.608Z,32.00
2022-09-15T04:51:16.589Z,28.00
2022-09-15T04:52:16.576Z,32.00
2022-09-15T04:53:16.577Z,36.00
2022-09-15T04:54:16.546Z,40.00
2022-09-15T04:55:16.668Z,44.00
2022-09-15T04:56:16.528Z,44.00
2022-09-15T04:57:16.516Z,48.00
2022-09-15T04:58:16.505Z,48.00
2022-09-15T04:59:16.487Z,56.00
2022-09-15T05:00:16.465Z,60.00
2022-09-15T05:01:16.532Z,60.00
2022-09-15T05:02:16.700Z,72.00
2022-09-15T05:03:16.449Z,76.00
2022-09-15T05:04:16.417Z,88.00
2022-09-15T05:05:16.398Z,104.00
2022-09-15T05:06:16.394Z,116.00
2022-09-15T05:07:16.387Z,136.00
2022-09-15T05:08:16.378Z,164.00
2022-09-15T05:09:16.346Z,188.00
2022-09-15T05:10:16.326Z,212.00
2022-09-15T05:11:16.334Z,232.00
2022-09-15T05:12:16.307Z,252.00
2022-09-15T05:13:16.306Z,268.00
2022-09-15T05:14:16.274Z,288.00
2022-09-15T05:15:16.269Z,304.00
2022-09-15T05:16:16.302Z,324.00
2022-09-15T05:17:16.248Z,348.00
2022-09-15T05:18:16.315Z,372.00
2022-09-15T05:19:16.209Z,404.00
2022-09-15T05:20:16.199Z,448.00
2022-09-15T05:21:16.192Z,488.00
2022-09-15T05:22:16.175Z,532.00
2022-09-15T05:23:16.179Z,588.00
2022-09-15T05:24:16.136Z,640.00
2022-09-15T05:25:16.137Z,684.00
2022-09-15T05:26:16.118Z,744.00
2022-09-15T05:27:16.105Z,800.00
2022-09-15T05:28:16.105Z,840.00
2022-09-15T05:29:16.075Z,892.00
2022-09-15T05:30:36.757Z,944.00
2022-09-15T05:31:17.119Z,1004.00
2022-09-15T05:32:16.036Z,1072.00
2022-09-15T05:33:16.040Z,1128.00
2022-09-15T05:34:16.015Z,1180.00
2022-09-15T05:35:15.997Z,1228.00
2022-09-15T05:36:15.975Z,1272.00
2022-09-15T05:37:15.965Z,1292.00
2022-09-15T05:38:15.965Z,1288.00
2022-09-15T05:39:15.944Z,1288.00
2022-09-15T05:40:15.959Z,1300.00
2022-09-15T05:41:15.917Z,1296.00
2022-09-15T05:42:15.896Z,1284.00
2022-09-15T05:43:15.907Z,1300.00
2022-09-15T05:44:15.877Z,1312.00
2022-09-15T05:45:15.858Z,1332.00
2022-09-15T05:46:15.988Z,1312.00
2022-09-15T05:47:15.842Z,1236.00
2022-09-15T05:48:15.836Z,1172.00
2022-09-15T05:49:15.818Z,1120.00
2022-09-15T05:50:15.786Z,1056.00
2022-09-15T05:51:15.802Z,1020.00
2022-09-15T05:52:15.777Z,1008.00
2022-09-15T05:53:15.780Z,1024.00
2022-09-15T05:54:15.756Z,1040.00
2022-09-15T05:55:15.731Z,1016.00
2022-09-15T05:56:15.725Z,956.00
2022-09-15T05:57:15.707Z,940.00
2022-09-15T05:58:15.710Z,1000.00
2022-09-15T05:59:15.676Z,1068.00
2022-09-15T06:00:15.658Z,1128.00
2022-09-15T06:01:15.647Z,1216.00
2022-09-15T06:02:15.674Z,1292.00
2022-09-15T06:03:15.690Z,1340.00
2022-09-15T06:04:15.605Z,1388.00
2022-09-15T06:05:15.595Z,1488.00
2022-09-15T06:06:15.577Z,1624.00
2022-09-15T06:07:15.576Z,1764.00
2022-09-15T06:08:15.564Z,1824.00
2022-09-15T06:09:15.539Z,2088.00
2022-09-15T06:10:15.538Z,1840.00
2022-09-15T06:11:15.521Z,1840.00
2022-09-15T06:12:15.503Z,1924.00
2022-09-15T06:13:15.504Z,1832.00
2022-09-15T06:14:15.469Z,1848.00
2022-09-15T06:15:15.473Z,1924.00
2022-09-15T06:16:15.510Z,2060.00
2022-09-15T06:17:15.428Z,2108.00
2022-09-15T06:18:15.433Z,2168.00
2022-09-15T06:19:15.407Z,2144.00
2022-09-15T06:20:15.385Z,2184.00
2022-09-15T06:21:15.374Z,2220.00
2022-09-15T06:22:15.368Z,2364.00
2022-09-15T06:23:15.374Z,2668.00
2022-09-15T06:24:15.334Z,2964.00
2022-09-15T06:25:15.327Z,3372.00
2022-09-15T06:26:15.320Z,3892.00
2022-09-15T06:27:15.299Z,4116.00
2022-09-15T06:28:15.295Z,4888.00
2022-09-15T06:29:15.265Z,5256.00
2022-09-15T06:30:15.255Z,7328.00
2022-09-15T06:31:15.244Z,6212.00
2022-09-15T06:32:15.371Z,4932.00
2022-09-15T06:33:15.231Z,5240.00
2022-09-15T06:34:15.209Z,4432.00
2022-09-15T06:35:15.190Z,4852.00
2022-09-15T06:36:15.173Z,3168.00
2022-09-15T06:37:15.191Z,2224.00
2022-09-15T06:38:15.155Z,2020.00
2022-09-15T06:39:15.146Z,1604.00
2022-09-15T06:40:15.174Z,1176.00
2022-09-15T06:41:15.115Z,1092.00
2022-09-15T06:42:15.104Z,1040.00
2022-09-15T06:43:15.094Z,968.00
2022-09-15T06:44:15.070Z,908.00
2022-09-15T06:45:15.066Z,920.00
2022-09-15T06:46:15.105Z,1048.00
2022-09-15T06:47:15.047Z,1336.00
2022-09-15T06:48:24.546Z,1736.00
2022-09-15T06:49:16.008Z,1888.00
2022-09-15T06:50:14.985Z,2084.00
2022-09-15T06:51:14.981Z,3036.00
2022-09-15T06:52:14.974Z,2608.00
2022-09-15T06:53:14.948Z,2676.00
2022-09-15T06:54:14.935Z,3000.00
2022-09-15T06:55:14.925Z,4292.00
2022-09-15T06:56:14.907Z,3204.00
2022-09-15T06:57:14.908Z,2628.00
2022-09-15T06:58:14.881Z,2924.00
2022-09-15T06:59:14.876Z,4532.00
2022-09-15T07:00:14.856Z,3080.00
2022-09-15T07:01:14.859Z,2952.00
2022-09-15T07:02:14.945Z,2260.00
2022-09-15T07:03:14.931Z,2224.00
2022-09-15T07:04:14.807Z,1628.00
2022-09-15T07:05:14.793Z,1416.00
2022-09-15T07:06:14.781Z,1336.00
2022-09-15T07:07:14.777Z,1412.00
2022-09-15T07:08:14.745Z,1592.00
2022-09-15T07:09:14.742Z,1600.00
2022-09-15T07:10:14.717Z,1640.00
2022-09-15T07:11:14.706Z,1916.00
2022-09-15T07:12:14.707Z,2604.00
2022-09-15T07:13:14.684Z,3272.00
2022-09-15T07:14:14.667Z,3332.00
2022-09-15T07:15:14.656Z,1924.00
2022-09-15T07:16:14.706Z,1872.00
2022-09-15T07:17:14.645Z,1852.00
2022-09-15T07:18:14.604Z,1900.00
2022-09-15T07:19:14.613Z,2124.00
2022-09-15T07:20:14.584Z,2452.00
2022-09-15T07:21:14.594Z,2748.00
2022-09-15T07:22:14.575Z,2312.00
2022-09-15T07:23:14.544Z,1956.00
2022-09-15T07:24:14.535Z,1768.00
2022-09-15T07:25:14.517Z,1640.00
2022-09-15T07:26:14.524Z,1624.00
2022-09-15T07:27:14.494Z,1688.00
2022-09-15T07:28:14.484Z,1756.00
2022-09-15T07:29:14.474Z,1796.00
2022-09-15T07:30:14.447Z,1712.00
2022-09-15T07:31:14.532Z,1572.00
2022-09-15T07:32:14.426Z,1528.00
2022-09-15T07:33:14.416Z,1440.00
2022-09-15T07:34:14.396Z,1316.00
2022-09-15T07:35:14.386Z,1252.00
2022-09-15T07:36:14.386Z,1320.00
2022-09-15T07:37:14.353Z,1336.00
2022-09-15T07:38:14.334Z,1392.00
2022-09-15T07:39:14.335Z,1412.00
2022-09-15T07:40:14.379Z,1380.00
2022-09-15T07:41:14.325Z,1316.00
2022-09-15T07:42:15.530Z,1248.00
2022-09-15T07:43:14.311Z,1204.00
2022-09-15T07:44:14.254Z,1180.00
2022-09-15T07:45:14.253Z,1244.00
2022-09-15T07:46:14.336Z,1364.00
2022-09-15T07:47:14.224Z,1612.00
2022-09-15T07:48:14.204Z,5232.00
2022-09-15T07:49:14.209Z,5280.00
2022-09-15T07:50:14.175Z,2528.00
2022-09-15T07:51:14.187Z,2476.00
2022-09-15T07:52:14.147Z,2572.00
2022-09-15T07:53:14.146Z,2752.00
2022-09-15T07:54:16.314Z,3728.00
2022-09-15T07:55:15.120Z,4324.00
2022-09-15T07:56:14.105Z,4464.00
2022-09-15T07:57:14.089Z,9060.00
2022-09-15T07:58:14.065Z,21408.00
2022-09-15T07:59:14.063Z,6968.00
2022-09-15T08:00:14.045Z,4472.00
2022-09-15T08:01:14.065Z,3960.00
2022-09-15T08:02:14.074Z,10708.00
2022-09-15T08:03:14.006Z,5216.00
2022-09-15T08:04:13.994Z,3516.00
2022-09-15T08:05:13.985Z,3140.00
2022-09-15T08:06:13.999Z,2876.00
2022-09-15T08:07:13.957Z,2644.00
2022-09-15T08:08:13.934Z,2560.00
2022-09-15T08:09:13.928Z,2332.00
2022-09-15T08:10:13.918Z,2132.00
2022-09-15T08:11:18.311Z,1956.00
2022-09-15T08:12:14.878Z,1748.00
2022-09-15T08:13:13.876Z,1628.00
2022-09-15T08:14:13.857Z,1536.00
2022-09-15T08:15:13.861Z,1444.00
2022-09-15T08:16:13.968Z,1316.00
2022-09-15T08:17:13.823Z,1292.00
2022-09-15T08:18:13.806Z,1076.00
2022-09-15T08:19:13.798Z,968.00
2022-09-15T08:20:13.809Z,924.00
2022-09-15T08:21:13.798Z,924.00
2022-09-15T08:22:13.757Z,920.00
2022-09-15T08:23:13.737Z,928.00
2022-09-15T08:24:13.754Z,936.00
2022-09-15T08:25:13.724Z,884.00
2022-09-15T08:26:14.562Z,852.00
2022-09-15T08:27:13.694Z,864.00
2022-09-15T08:28:13.676Z,888.00
2022-09-15T08:29:13.657Z,884.00
2022-09-15T08:30:13.656Z,836.00
2022-09-15T08:31:13.753Z,848.00
2022-09-15T08:32:13.621Z,856.00
2022-09-15T08:33:13.607Z,860.00
2022-09-15T08:34:13.589Z,888.00
2022-09-15T08:35:13.585Z,872.00
2022-09-15T08:36:13.589Z,852.00
2022-09-15T08:37:13.556Z,792.00
2022-09-15T08:38:13.538Z,796.00
2022-09-15T08:39:13.526Z,800.00
2022-09-15T08:40:13.573Z,748.00
2022-09-15T08:41:13.526Z,712.00
2022-09-15T08:42:13.479Z,692.00
2022-09-15T08:43:13.487Z,672.00
2022-09-15T08:44:13.458Z,620.00
2022-09-15T08:45:13.449Z,604.00
2022-09-15T08:46:13.485Z,600.00
2022-09-15T08:47:13.418Z,612.00
2022-09-15T08:48:13.408Z,632.00
2022-09-15T08:49:13.395Z,680.00
2022-09-15T08:50:13.376Z,744.00
2022-09-15T08:51:13.378Z,840.00
2022-09-15T08:52:13.345Z,924.00
2022-09-15T08:53:13.340Z,1048.00
2022-09-15T08:54:13.318Z,1144.00
2022-09-15T08:55:13.316Z,1216.00
2022-09-15T08:56:13.317Z,1264.00
2022-09-15T08:57:13.288Z,1264.00
2022-09-15T08:58:13.270Z,1268.00
2022-09-15T08:59:13.256Z,1308.00
2022-09-15T09:00:13.238Z,1364.00
2022-09-15T09:01:13.333Z,1432.00
2022-09-15T09:02:13.222Z,1452.00
2022-09-15T09:03:13.257Z,1500.00
2022-09-15T09:04:17.501Z,1648.00
2022-09-15T09:05:13.179Z,1748.00
2022-09-15T09:06:13.175Z,1792.00
2022-09-15T09:07:13.148Z,1832.00
2022-09-15T09:08:13.134Z,1924.00
2022-09-15T09:09:13.117Z,1980.00
2022-09-15T09:10:13.107Z,1968.00
2022-09-15T09:11:13.118Z,2148.00
2022-09-15T09:12:13.087Z,2120.00
2022-09-15T09:13:13.069Z,2324.00
2022-09-15T09:14:13.056Z,2428.00
2022-09-15T09:15:13.042Z,2760.00
2022-09-15T09:16:13.066Z,3048.00
2022-09-15T09:17:13.018Z,3380.00
2022-09-15T09:18:13.015Z,4104.00
2022-09-15T09:19:12.978Z,4360.00
2022-09-15T09:20:12.977Z,4624.00
2022-09-15T09:21:12.967Z,4816.00
2022-09-15T09:22:12.948Z,4624.00
2022-09-15T09:23:12.934Z,4260.00
2022-09-15T09:24:12.925Z,4100.00
2022-09-15T09:25:26.513Z,4028.00
2022-09-15T09:26:13.914Z,4208.00
2022-09-15T09:27:12.893Z,4620.00
2022-09-15T09:28:12.867Z,4592.00
2022-09-15T09:29:12.849Z,4336.00
2022-09-15T09:30:12.881Z,4520.00
2022-09-15T09:31:12.912Z,4464.00
2022-09-15T09:32:12.822Z,4464.00
2022-09-15T09:33:12.800Z,4328.00
2022-09-15T09:34:12.790Z,4224.00
2022-09-15T09:35:12.778Z,4308.00
2022-09-15T09:36:12.784Z,3916.00
2022-09-15T09:37:12.753Z,4604.00
2022-09-15T09:38:12.738Z,4636.00
2022-09-15T09:39:12.720Z,4704.00
2022-09-15T09:40:12.758Z,4840.00
2022-09-15T09:41:12.698Z,4496.00
2022-09-15T09:42:12.679Z,4816.00
2022-09-15T09:43:12.660Z,4828.00
2022-09-15T09:44:12.659Z,4704.00
2022-09-15T09:45:12.630Z,4684.00
2022-09-15T09:46:12.705Z,4684.00
2022-09-15T09:47:12.627Z,4736.00
2022-09-15T09:48:12.591Z,4680.00
2022-09-15T09:49:12.581Z,4528.00
2022-09-15T09:50:12.584Z,4360.00
2022-09-15T09:51:12.573Z,4268.00
2022-09-15T09:52:12.562Z,4180.00
2022-09-15T09:53:12.531Z,4184.00
2022-09-15T09:54:12.530Z,4272.00
2022-09-15T09:55:12.501Z,4200.00
2022-09-15T09:56:12.510Z,4012.00
2022-09-15T09:57:12.475Z,3928.00
2022-09-15T09:58:12.466Z,3884.00
2022-09-15T09:59:12.453Z,4096.00
2022-09-15T10:00:12.449Z,4180.00
2022-09-15T10:01:12.473Z,4208.00
2022-09-15T10:02:12.414Z,4172.00
2022-09-15T10:03:12.396Z,4072.00
2022-09-15T10:04:12.383Z,4100.00
2022-09-15T10:05:12.436Z,3948.00
2022-09-15T10:06:12.377Z,3880.00
2022-09-15T10:07:12.345Z,3544.00
2022-09-15T10:08:12.334Z,3456.00
2022-09-15T10:09:12.320Z,3416.00
2022-09-15T10:10:12.316Z,3380.00
2022-09-15T10:11:12.297Z,3368.00
2022-09-15T10:12:12.284Z,3296.00
2022-09-15T10:13:12.274Z,3288.00
2022-09-15T10:14:12.258Z,3220.00
2022-09-15T10:15:12.256Z,3164.00
2022-09-15T10:16:12.260Z,3088.00
2022-09-15T10:17:12.216Z,3020.00
2022-09-15T10:18:12.215Z,2956.00
2022-09-15T10:19:12.182Z,2908.00
2022-09-15T10:20:12.298Z,2916.00
2022-09-15T10:21:12.153Z,2940.00
2022-09-15T10:22:12.143Z,3032.00
2022-09-15T10:23:12.127Z,3152.00
2022-09-15T10:24:12.826Z,3212.00
2022-09-15T10:25:12.125Z,3240.00
2022-09-15T10:26:12.115Z,3276.00
2022-09-15T10:27:12.085Z,3272.00
2022-09-15T10:28:12.090Z,3248.00
2022-09-15T10:29:12.070Z,3224.00
2022-09-15T10:30:12.068Z,3216.00
2022-09-15T10:31:12.024Z,3336.00
2022-09-15T10:32:12.044Z,3420.00
2022-09-15T10:33:12.000Z,3228.00
2022-09-15T10:34:11.985Z,3204.00
2022-09-15T10:35:11.976Z,3236.00
2022-09-15T10:36:11.966Z,3224.00
2022-09-15T10:37:11.946Z,3012.00
2022-09-15T10:38:11.939Z,3112.00
2022-09-15T10:39:11.921Z,3212.00
2022-09-15T10:40:12.002Z,2948.00
2022-09-15T10:41:11.895Z,2964.00
2022-09-15T10:42:11.893Z,3052.00
2022-09-15T10:43:11.863Z,2984.00
2022-09-15T10:44:11.855Z,2844.00
2022-09-15T10:45:11.857Z,2664.00
2022-09-15T10:46:11.867Z,2664.00
2022-09-15T10:47:11.826Z,2576.00
2022-09-15T10:48:11.824Z,2496.00
2022-09-15T10:49:11.785Z,2504.00
2022-09-15T10:50:11.836Z,2984.00
2022-09-15T10:51:11.754Z,2520.00
2022-09-15T10:52:11.746Z,2532.00
2022-09-15T10:53:11.735Z,2712.00
2022-09-15T10:54:11.728Z,2636.00
2022-09-15T10:55:11.718Z,2472.00
2022-09-15T10:56:11.693Z,2308.00
2022-09-15T10:57:11.675Z,2132.00
2022-09-15T10:58:11.668Z,1980.00
2022-09-15T10:59:11.655Z,1856.00
2022-09-15T11:00:11.659Z,1860.00
2022-09-15T11:01:11.670Z,1944.00
2022-09-15T11:02:11.652Z,1944.00
2022-09-15T11:03:11.598Z,1920.00
2022-09-15T11:04:11.589Z,1840.00
2022-09-15T11:05:11.581Z,1744.00
2022-09-15T11:06:11.564Z,1628.00
2022-09-15T11:07:11.545Z,1588.00
2022-09-15T11:08:11.558Z,1472.00
2022-09-15T11:09:11.517Z,1376.00
2022-09-15T11:10:11.531Z,1368.00
2022-09-15T11:11:11.488Z,1304.00
2022-09-15T11:12:11.480Z,1216.00
2022-09-15T11:13:11.467Z,1116.00
2022-09-15T11:14:11.461Z,1080.00
2022-09-15T11:15:11.453Z,1184.00
2022-09-15T11:16:11.465Z,1404.00
2022-09-15T11:17:11.407Z,1524.00
2022-09-15T11:18:11.406Z,1656.00
2022-09-15T11:19:11.381Z,1744.00
2022-09-15T11:20:11.389Z,1788.00
2022-09-15T11:21:11.358Z,1780.00
2022-09-15T11:22:11.353Z,1872.00
2022-09-15T11:23:11.327Z,1804.00
2022-09-15T11:24:11.328Z,1732.00
2022-09-15T11:25:11.330Z,1656.00
2022-09-15T11:26:11.299Z,1752.00
2022-09-15T11:27:11.277Z,1940.00
2022-09-15T11:28:11.266Z,2104.00
2022-09-15T11:29:11.252Z,2140.00
2022-09-15T11:30:11.249Z,2280.00
2022-09-15T11:31:11.342Z,2560.00
2022-09-15T11:32:11.222Z,2744.00
2022-09-15T11:33:11.201Z,2804.00
2022-09-15T11:34:11.189Z,2844.00
2022-09-15T11:35:11.191Z,2740.00
2022-09-15T11:36:11.160Z,3000.00
2022-09-15T11:37:11.150Z,3156.00
2022-09-15T11:38:13.041Z,2824.00
2022-09-15T11:39:11.122Z,2416.00
2022-09-15T11:40:11.149Z,2168.00
2022-09-15T11:41:11.092Z,2020.00
2022-09-15T11:42:11.079Z,1788.00
2022-09-15T11:43:11.072Z,1712.00
2022-09-15T11:44:16.082Z,1656.00
2022-09-15T11:45:12.050Z,1388.00
2022-09-15T11:46:11.084Z,1284.00
2022-09-15T11:47:11.010Z,1172.00
2022-09-15T11:48:10.998Z,1064.00
2022-09-15T11:49:10.980Z,1016.00
2022-09-15T11:50:10.991Z,932.00
2022-09-15T11:51:10.960Z,868.00
2022-09-15T11:52:10.949Z,800.00
2022-09-15T11:53:10.945Z,752.00
2022-09-15T11:54:10.923Z,800.00
2022-09-15T11:55:10.922Z,888.00
2022-09-15T11:56:10.897Z,976.00
2022-09-15T11:57:10.879Z,1084.00
2022-09-15T11:58:10.870Z,1228.00
2022-09-15T11:59:10.851Z,1380.00
2022-09-15T12:00:10.851Z,1352.00
2022-09-15T12:01:10.823Z,1124.00
2022-09-15T12:02:10.857Z,900.00
2022-09-15T12:03:10.882Z,688.00
2022-09-15T12:04:10.798Z,536.00
2022-09-15T12:05:11.154Z,532.00
2022-09-15T12:06:10.774Z,564.00
2022-09-15T12:07:13.702Z,640.00
2022-09-15T12:08:10.729Z,796.00
2022-09-15T12:09:10.720Z,948.00
2022-09-15T12:10:10.716Z,1036.00
2022-09-15T12:11:10.714Z,1096.00
2022-09-15T12:12:10.681Z,1200.00
2022-09-15T12:13:10.660Z,1296.00
2022-09-15T12:14:10.661Z,1376.00
2022-09-15T12:15:10.651Z,1396.00
2022-09-15T12:16:10.706Z,1844.00
2022-09-15T12:17:10.613Z,1468.00
2022-09-15T12:18:27.676Z,1576.00
2022-09-15T12:19:11.588Z,1416.00
2022-09-15T12:20:10.585Z,1488.00
2022-09-15T12:21:10.561Z,1440.00
2022-09-15T12:22:10.552Z,1432.00
2022-09-15T12:23:10.532Z,1400.00
2022-09-15T12:24:10.522Z,1316.00
2022-09-15T12:25:10.512Z,1212.00
2022-09-15T12:26:10.493Z,1236.00
2022-09-15T12:27:10.481Z,1296.00
2022-09-15T12:28:10.474Z,1068.00
2022-09-15T12:29:10.451Z,1052.00
2022-09-15T12:30:10.462Z,1016.00
2022-09-15T12:31:10.513Z,940.00
2022-09-15T12:32:10.423Z,876.00
2022-09-15T12:33:10.392Z,820.00
2022-09-15T12:34:10.391Z,828.00
2022-09-15T12:35:13.602Z,796.00